Pagrindinis puslapis
METAR-TAF:

METAR-TAF

Oro uostai :

Čanakalė, Turkija

platuma: 40-08N, ilguma: 026-24E, Aukštis: 3 m

Dabartinis oras

Ataskaita buvo paskelbta 59 minutes, ne 23:50 UTC
Vėjas 5 kt iš Šiaurės Rytų
Temperatūra 11°C
Drėgmė 82%
Slėgis 1017 hPa
Matomumas 10 km arba daugiau
Išsisklaidę debesys ne aukštis 3500 ft
Su prošvaistėmis ne aukštis 10000 ft

METAR: LTBH 312350Z 04005KT 9999 SCT035 BKN100 11/08 Q1017

Laikas: 03:49 (00:49 UTC)

Prognozė

Ataskaita buvo paskelbta 2 valandos ir 9 minutes, ne 22:40 UTC
Prognozė galioja nuo 01 metu 00 UTC su 01 metu 09 UTC
Vėjas 2 kt nuo kintamojo kryptimis
Matomumas 10 km arba daugiau
Išsisklaidę debesys ne aukštis 3500 ft
Su prošvaistėmis ne aukštis 10000 ft

TAF: LTBH 312240Z 0100/0109 VRB02KT 9999 SCT035 BKN100

Orai ataskaitas ir orų prognozės (METAR, TAF).

turimą stotys yra geltonos ir raudonos taškus žemėlapyje.

Perkelti pele per norėdami pamatyti stoties vardą.

Tada spustelėkite, norėdami matyti oro stebėjimo ir prognozės.

Norėdami pakeisti žemėlapį: spustelėkite ant žalios mygtukų su juodo kryžiaus žemyn,; žalią mygtuką su brūkšneliu, jei norite nutolinti; arba žalių rodyklių gretimoms žemėlapius.


METAR-TAF: